Time;durP1;ratioP1;P1;durP2;ratioP2;P2;SDS_P1;SDS_P2;PMS_P1;PMS_P2;Temp;Humidity;BMP_temperature;BMP_pressure;BME280_temperature;BME280_humidity;BME280_pressure;Samples;Min_cycle;Max_cycle;Signal;HPM_P1;HPM_P2
2023/05/21 00:02:10;;;;;;;15.05;11.63;;;14.10;99.90;;;;;;5102027;28;20491;-72
2023/05/21 00:04:39;;;;;;;15.75;11.68;;;14.00;99.90;;;;;;5086538;28;20038;-72
2023/05/21 00:07:07;;;;;;;17.17;12.00;;;14.00;99.90;;;;;;5100899;28;20015;-72
2023/05/21 00:09:34;;;;;;;15.73;11.40;;;14.10;99.90;;;;;;5107543;28;20051;-72
2023/05/21 00:12:00;;;;;;;16.17;12.77;;;14.10;99.90;;;;;;5087065;28;20384;-72
2023/05/21 00:14:28;;;;;;;14.73;11.38;;;14.10;99.90;;;;;;5086540;28;20147;-72
2023/05/21 00:16:53;;;;;;;12.90;11.15;;;14.10;99.90;;;;;;5097716;28;20047;-71
2023/05/21 00:19:19;;;;;;;15.13;11.68;;;14.10;99.90;;;;;;5108604;28;20395;-71
2023/05/21 00:21:44;;;;;;;16.63;11.80;;;14.10;99.90;;;;;;5087353;28;20031;-64
2023/05/21 00:24:10;;;;;;;18.60;13.52;;;14.10;99.90;;;;;;5088557;28;20480;-60
2023/05/21 00:26:36;;;;;;;17.67;13.15;;;14.10;99.90;;;;;;5080227;28;20044;-65
2023/05/21 00:29:02;;;;;;;15.57;11.93;;;14.10;99.90;;;;;;5080317;28;20035;-65
2023/05/21 00:31:28;;;;;;;18.65;12.52;;;14.10;99.90;;;;;;5083204;28;20024;-65
2023/05/21 00:33:53;;;;;;;19.45;14.48;;;14.10;99.90;;;;;;5085179;28;20514;-65
2023/05/21 00:36:22;;;;;;;16.52;12.52;;;14.10;99.90;;;;;;5096504;28;20024;-64
2023/05/21 00:38:49;;;;;;;16.77;13.30;;;14.10;99.90;;;;;;5104386;28;20050;-66
2023/05/21 00:41:16;;;;;;;19.63;14.70;;;14.00;99.90;;;;;;5094997;28;20032;-64
2023/05/21 00:43:43;;;;;;;19.88;13.63;;;14.10;99.90;;;;;;5096068;28;20019;-64
2023/05/21 00:46:18;;;;;;;17.95;13.75;;;14.10;99.90;;;;;;5088355;28;20040;-66
2023/05/21 00:48:45;;;;;;;16.88;13.98;;;14.10;99.90;;;;;;5076687;28;20482;-65
2023/05/21 00:51:14;;;;;;;17.98;14.32;;;14.10;99.90;;;;;;5104206;28;20036;-65
2023/05/21 00:53:40;;;;;;;18.63;13.70;;;14.10;99.90;;;;;;5096130;28;20041;-64
2023/05/21 00:56:06;;;;;;;20.55;14.07;;;14.10;99.90;;;;;;5087058;28;20040;-65
2023/05/21 00:58:32;;;;;;;19.23;14.50;;;14.10;99.90;;;;;;5095751;28;20575;-63
2023/05/21 01:01:02;;;;;;;23.25;15.68;;;14.10;99.90;;;;;;5081331;28;20111;-65
2023/05/21 01:03:29;;;;;;;19.20;15.13;;;14.00;99.90;;;;;;5106967;28;20031;-64
2023/05/21 01:05:58;;;;;;;17.83;14.00;;;14.10;99.90;;;;;;5082525;28;20160;-65
2023/05/21 01:08:26;;;;;;;18.55;14.38;;;14.00;99.90;;;;;;5107377;28;20031;-65
2023/05/21 01:10:52;;;;;;;19.90;14.50;;;14.00;99.90;;;;;;5070882;28;20111;-65
2023/05/21 01:13:21;;;;;;;20.58;15.25;;;14.00;99.90;;;;;;5094248;28;20032;-63
2023/05/21 01:15:48;;;;;;;25.40;16.83;;;13.90;99.90;;;;;;5085117;28;20033;-64
2023/05/21 01:18:14;;;;;;;20.70;14.98;;;14.00;99.90;;;;;;5081468;28;20038;-64
2023/05/21 01:20:41;;;;;;;19.77;16.52;;;13.90;99.90;;;;;;5089424;28;20031;-64
2023/05/21 01:23:07;;;;;;;26.85;17.35;;;13.90;99.90;;;;;;5106492;28;20065;-64
2023/05/21 01:25:33;;;;;;;26.90;17.15;;;13.90;99.90;;;;;;5082546;28;20515;-64
2023/05/21 01:27:59;;;;;;;21.90;15.75;;;13.90;99.90;;;;;;5106181;28;20118;-65
2023/05/21 01:30:25;;;;;;;18.73;15.55;;;13.90;99.90;;;;;;5093224;28;20127;-64
2023/05/21 01:33:11;;;;;;;22.83;16.85;;;13.80;99.90;;;;;;5106028;28;20057;-65
2023/05/21 01:35:52;;;;;;;22.38;17.58;;;13.80;99.90;;;;;;5073098;28;20086;-64
2023/05/21 01:38:24;;;;;;;26.10;18.77;;;13.80;99.90;;;;;;5066103;28;20044;-63
2023/05/21 01:41:03;;;;;;;26.60;19.30;;;13.80;99.90;;;;;;5081372;28;20399;-64
2023/05/21 01:43:33;;;;;;;27.25;18.95;;;13.80;99.90;;;;;;5070322;28;20487;-64
2023/05/21 01:46:00;;;;;;;24.25;17.90;;;13.80;99.90;;;;;;5077723;28;20035;-64
2023/05/21 01:48:28;;;;;;;25.15;18.20;;;13.80;99.90;;;;;;5109391;28;20027;-65
2023/05/21 01:50:56;;;;;;;26.65;19.45;;;13.70;99.90;;;;;;5088885;28;20031;-64
2023/05/21 01:53:21;;;;;;;24.45;18.60;;;13.70;99.90;;;;;;5109100;28;20037;-63
2023/05/21 01:55:47;;;;;;;24.17;18.60;;;13.70;99.90;;;;;;5089180;28;20031;-65
2023/05/21 01:58:14;;;;;;;24.63;18.02;;;13.70;99.90;;;;;;5110050;28;20034;-64
2023/05/21 02:00:40;;;;;;;23.98;19.27;;;13.60;99.90;;;;;;5088646;28;20130;-63
2023/05/21 02:03:06;;;;;;;25.60;18.13;;;13.60;99.90;;;;;;5095461;28;20435;-65
2023/05/21 02:05:32;;;;;;;28.70;20.33;;;13.60;99.90;;;;;;5102191;28;20038;-64
2023/05/21 02:08:00;;;;;;;25.88;19.75;;;13.60;99.90;;;;;;5090578;28;20036;-64
2023/05/21 02:10:25;;;;;;;24.35;18.27;;;13.60;99.90;;;;;;5108173;28;20678;-64
2023/05/21 02:12:51;;;;;;;23.60;18.33;;;13.60;99.90;;;;;;5090170;28;20071;-65
2023/05/21 02:15:17;;;;;;;29.27;20.63;;;13.50;99.90;;;;;;5097870;28;20024;-64
2023/05/21 02:17:44;;;;;;;31.50;21.75;;;13.50;99.90;;;;;;5109666;28;20081;-64
2023/05/21 02:20:10;;;;;;;23.77;18.90;;;13.50;99.90;;;;;;5086755;28;20039;-64
2023/05/21 02:22:42;;;;;;;25.13;20.08;;;13.50;99.90;;;;;;5104730;28;20031;-64
2023/05/21 02:25:09;;;;;;;27.20;20.65;;;13.50;99.90;;;;;;5067519;28;20622;-64
2023/05/21 02:27:36;;;;;;;29.63;22.33;;;13.50;99.90;;;;;;5069561;28;20036;-63
2023/05/21 02:30:03;;;;;;;27.90;19.50;;;13.40;99.90;;;;;;5095251;28;20419;-64
2023/05/21 02:32:30;;;;;;;29.00;20.33;;;13.40;99.90;;;;;;5081430;28;20047;-64
2023/05/21 02:34:57;;;;;;;30.25;20.60;;;13.50;99.90;;;;;;5087834;28;20052;-64
2023/05/21 02:37:22;;;;;;;27.85;21.42;;;13.40;99.90;;;;;;5078448;28;20508;-64
2023/05/21 02:39:48;;;;;;;29.70;22.42;;;13.40;99.90;;;;;;5106542;28;20063;-64
2023/05/21 02:42:13;;;;;;;30.98;21.95;;;13.40;99.90;;;;;;5107671;28;20028;-64
2023/05/21 02:44:39;;;;;;;28.90;21.13;;;13.40;99.90;;;;;;5097152;28;20035;-64
2023/05/21 02:47:05;;;;;;;27.08;20.45;;;13.40;99.90;;;;;;5069156;28;20115;-65
2023/05/21 02:49:31;;;;;;;30.88;21.58;;;13.30;99.90;;;;;;5093657;28;20038;-64
2023/05/21 02:51:56;;;;;;;31.85;22.65;;;13.40;99.90;;;;;;5068752;28;20472;-64
2023/05/21 02:54:21;;;;;;;30.05;21.40;;;13.40;99.90;;;;;;5103350;28;20039;-65
2023/05/21 02:56:47;;;;;;;33.90;23.20;;;13.40;99.90;;;;;;5080213;28;20036;-65
2023/05/21 02:59:12;;;;;;;32.70;24.40;;;13.30;99.90;;;;;;5104645;28;20407;-64
2023/05/21 03:01:40;;;;;;;28.55;22.17;;;13.40;99.90;;;;;;5087624;28;20116;-65
2023/05/21 03:04:05;;;;;;;26.05;20.80;;;13.40;99.90;;;;;;5105743;28;20057;-64
2023/05/21 03:06:31;;;;;;;29.50;21.77;;;13.40;99.90;;;;;;5066004;28;20479;-64
2023/05/21 03:08:56;;;;;;;28.73;21.95;;;13.40;99.90;;;;;;5108182;28;20040;-64
2023/05/21 03:11:21;;;;;;;31.00;23.25;;;13.40;99.90;;;;;;5096307;28;20036;-64
2023/05/21 03:13:47;;;;;;;30.83;23.23;;;13.40;99.90;;;;;;5108457;28;20538;-64
2023/05/21 03:16:13;;;;;;;30.10;22.23;;;13.40;99.90;;;;;;5086805;28;20035;-64
2023/05/21 03:18:38;;;;;;;26.17;21.13;;;13.40;99.90;;;;;;5109472;28;20495;-64
2023/05/21 03:21:04;;;;;;;30.52;23.92;;;13.40;99.90;;;;;;5087673;28;20711;-64
2023/05/21 03:23:30;;;;;;;33.63;24.27;;;13.50;99.90;;;;;;5091068;28;20028;-64
2023/05/21 03:25:56;;;;;;;31.75;23.38;;;13.50;99.90;;;;;;5102254;28;20092;-63
2023/05/21 03:28:22;;;;;;;30.40;22.38;;;13.60;99.90;;;;;;5086793;28;20103;-64
2023/05/21 03:30:48;;;;;;;28.80;21.55;;;13.60;99.90;;;;;;5090714;28;20184;-64
2023/05/21 03:33:15;;;;;;;25.63;21.25;;;13.70;99.90;;;;;;5104664;28;20028;-64
2023/05/21 03:35:40;;;;;;;31.38;23.92;;;13.70;99.90;;;;;;5091174;28;20016;-64
2023/05/21 03:38:06;;;;;;;29.70;23.45;;;13.70;99.90;;;;;;5106670;28;20028;-64
2023/05/21 03:40:31;;;;;;;34.88;24.13;;;13.80;99.90;;;;;;5090956;28;20387;-64
2023/05/21 03:42:57;;;;;;;26.98;22.05;;;13.90;99.90;;;;;;5107282;28;20036;-63
2023/05/21 03:45:22;;;;;;;26.98;21.40;;;13.90;99.90;;;;;;5090760;28;20040;-65
2023/05/21 03:47:48;;;;;;;27.90;21.30;;;14.00;99.90;;;;;;5101070;28;20411;-65
2023/05/21 03:50:13;;;;;;;30.70;19.75;;;14.10;99.90;;;;;;5090857;28;20024;-65
2023/05/21 03:52:39;;;;;;;24.60;20.15;;;14.30;99.90;;;;;;5102625;28;20106;-65
2023/05/21 03:55:05;;;;;;;27.85;20.10;;;14.50;99.90;;;;;;5090680;28;20056;-65
2023/05/21 03:57:31;;;;;;;34.17;22.63;;;14.70;99.90;;;;;;5097466;28;20028;-65
2023/05/21 03:59:57;;;;;;;26.80;20.73;;;15.00;99.90;;;;;;5090724;28;20035;-64
2023/05/21 04:02:25;;;;;;;25.50;19.23;;;15.30;99.90;;;;;;5104919;28;20392;-64
2023/05/21 04:04:52;;;;;;;26.15;19.10;;;15.60;99.90;;;;;;5092669;28;20070;-65
2023/05/21 04:07:18;;;;;;;28.55;22.05;;;15.80;99.90;;;;;;5104353;28;20024;-64
2023/05/21 04:09:44;;;;;;;24.10;17.63;;;15.90;99.90;;;;;;5088713;28;20102;-64
2023/05/21 04:12:10;;;;;;;27.25;20.65;;;16.10;99.90;;;;;;5109906;28;20461;-65
2023/05/21 04:14:38;;;;;;;22.02;17.48;;;16.20;99.90;;;;;;5088730;28;20060;-64
2023/05/21 04:17:04;;;;;;;20.40;17.58;;;16.10;99.90;;;;;;5110416;28;20035;-64
2023/05/21 04:19:33;;;;;;;21.83;16.55;;;16.10;99.90;;;;;;5088677;28;20028;-64
2023/05/21 04:21:58;;;;;;;20.38;16.58;;;16.20;99.90;;;;;;5108805;28;20069;-64
2023/05/21 04:24:24;;;;;;;21.27;17.35;;;16.20;99.90;;;;;;5087346;28;20019;-64
2023/05/21 04:26:50;;;;;;;19.92;16.17;;;16.70;99.90;;;;;;5105149;28;20425;-65
2023/05/21 04:29:19;;;;;;;21.02;17.50;;;17.30;99.90;;;;;;5088738;28;20039;-65
2023/05/21 04:31:48;;;;;;;19.58;14.82;;;17.80;99.90;;;;;;5089916;28;20027;-64
2023/05/21 04:34:16;;;;;;;20.45;16.65;;;18.10;99.90;;;;;;5101986;28;20021;-64
2023/05/21 04:36:44;;;;;;;18.80;14.52;;;18.40;98.50;;;;;;5088624;28;20031;-64
2023/05/21 04:39:11;;;;;;;18.65;14.30;;;18.70;99.90;;;;;;5102455;28;20420;-64
2023/05/21 04:41:39;;;;;;;18.05;15.40;;;19.10;95.50;;;;;;5089792;28;20031;-64
2023/05/21 04:44:08;;;;;;;21.65;16.42;;;19.20;92.50;;;;;;5103203;28;20047;-64
2023/05/21 04:46:34;;;;;;;19.30;16.75;;;19.10;92.30;;;;;;5089895;28;20032;-64
2023/05/21 04:49:02;;;;;;;14.77;12.93;;;19.20;91.50;;;;;;5103562;28;20028;-64
2023/05/21 04:51:29;;;;;;;18.55;15.30;;;19.90;95.30;;;;;;5089448;28;20062;-64
2023/05/21 04:53:56;;;;;;;17.38;14.63;;;20.20;84.30;;;;;;5104205;28;20028;-64
2023/05/21 04:56:25;;;;;;;19.38;14.60;;;20.40;81.10;;;;;;5089640;28;20494;-64
2023/05/21 04:58:50;;;;;;;16.58;14.27;;;20.60;80.60;;;;;;5104921;28;20032;-64
2023/05/21 05:01:17;;;;;;;16.50;14.30;;;20.90;84.40;;;;;;5089662;28;20391;-63
2023/05/21 05:03:44;;;;;;;15.55;12.60;;;21.00;75.10;;;;;;5105528;28;20023;-65
2023/05/21 05:06:09;;;;;;;16.58;12.50;;;21.50;80.30;;;;;;5086541;28;20491;-65
2023/05/21 05:08:35;;;;;;;15.70;13.07;;;22.00;79.10;;;;;;5102830;28;20052;-65
2023/05/21 05:11:01;;;;;;;16.92;13.27;;;22.30;66.40;;;;;;5089352;28;20023;-64
2023/05/21 05:13:26;;;;;;;13.95;12.13;;;22.20;69.60;;;;;;5103077;28;21123;-65
2023/05/21 05:15:52;;;;;;;15.32;13.73;;;22.90;68.20;;;;;;5089155;28;20055;-64
2023/05/21 05:18:18;;;;;;;14.63;12.02;;;23.00;61.80;;;;;;5105270;28;20078;-63
2023/05/21 05:20:44;;;;;;;16.23;12.20;;;23.20;61.70;;;;;;5088121;28;20625;-65
2023/05/21 05:23:09;;;;;;;17.52;13.40;;;23.60;62.90;;;;;;5106369;28;20039;-63
2023/05/21 05:25:35;;;;;;;14.20;11.60;;;23.80;55.10;;;;;;5093624;28;20058;-64
2023/05/21 05:28:00;;;;;;;16.88;10.98;;;24.20;62.00;;;;;;5109487;28;20592;-65
2023/05/21 05:30:26;;;;;;;13.73;11.27;;;25.00;58.30;;;;;;5087867;28;20020;-64
2023/05/21 05:32:51;;;;;;;13.45;11.57;;;25.30;57.20;;;;;;5108772;28;20344;-65
2023/05/21 05:35:17;;;;;;;15.20;12.77;;;25.30;55.50;;;;;;5087647;28;20032;-63
2023/05/21 05:37:42;;;;;;;13.05;11.65;;;25.30;46.30;;;;;;5108526;28;20488;-64
2023/05/21 05:40:08;;;;;;;12.35;10.52;;;25.20;54.20;;;;;;5087715;28;20024;-64
2023/05/21 05:42:33;;;;;;;13.02;11.07;;;25.30;52.80;;;;;;5108473;28;20039;-64
2023/05/21 05:44:59;;;;;;;11.88;10.73;;;25.30;52.40;;;;;;5087819;28;20052;-65
2023/05/21 05:47:25;;;;;;;12.23;10.85;;;25.40;51.80;;;;;;5108608;28;20027;-64
2023/05/21 05:49:50;;;;;;;11.98;10.05;;;25.80;48.00;;;;;;5087684;28;20124;-64
2023/05/21 05:52:16;;;;;;;14.52;11.68;;;25.80;49.50;;;;;;5108504;28;20028;-61
2023/05/21 05:54:41;;;;;;;13.57;12.05;;;25.90;46.50;;;;;;5087670;28;20036;-64
2023/05/21 05:57:07;;;;;;;13.13;11.38;;;25.20;45.00;;;;;;5104498;28;20070;-63
2023/05/21 05:59:32;;;;;;;12.23;10.48;;;24.50;47.40;;;;;;5069150;28;20055;-64
2023/05/21 06:01:59;;;;;;;12.25;10.95;;;24.80;48.90;;;;;;5107687;28;20077;-63
2023/05/21 06:04:24;;;;;;;11.23;10.10;;;25.20;48.10;;;;;;5076835;28;20021;-63
2023/05/21 06:06:51;;;;;;;10.25;9.30;;;25.60;47.50;;;;;;5071835;28;20031;-64
2023/05/21 06:09:16;;;;;;;11.88;10.57;;;26.10;46.10;;;;;;5066324;28;20032;-63
2023/05/21 06:11:42;;;;;;;12.05;10.65;;;26.70;43.30;;;;;;5067112;28;20515;-64
2023/05/21 06:14:08;;;;;;;15.32;11.38;;;26.20;43.20;;;;;;5105497;28;20032;-64
2023/05/21 06:16:33;;;;;;;13.40;11.15;;;25.60;44.30;;;;;;5084991;28;20043;-65
2023/05/21 06:18:59;;;;;;;11.98;10.57;;;25.60;44.20;;;;;;5092496;28;20031;-65
2023/05/21 06:21:24;;;;;;;13.43;11.82;;;25.80;41.50;;;;;;5089449;28;20028;-64
2023/05/21 06:23:50;;;;;;;14.85;11.57;;;25.00;42.10;;;;;;5084058;28;20622;-64
2023/05/21 06:26:17;;;;;;;13.70;12.23;;;24.80;42.00;;;;;;5077712;28;20118;-59
2023/05/21 06:28:43;;;;;;;11.75;10.50;;;24.80;43.40;;;;;;5086828;28;20458;-62
2023/05/21 06:31:10;;;;;;;12.98;11.68;;;24.80;45.40;;;;;;5109858;28;20545;-59
2023/05/21 06:33:36;;;;;;;13.95;11.52;;;25.10;43.50;;;;;;5078548;28;20088;-57
2023/05/21 06:36:01;;;;;;;13.27;11.88;;;24.80;44.00;;;;;;5109781;28;20126;-59
2023/05/21 06:38:27;;;;;;;12.65;11.35;;;24.80;42.90;;;;;;5071342;28;20500;-59
2023/05/21 06:40:52;;;;;;;12.02;10.82;;;24.60;43.60;;;;;;5091920;28;20040;-58
2023/05/21 06:43:17;;;;;;;13.43;10.82;;;24.20;46.50;;;;;;5086249;28;20025;-58
2023/05/21 06:45:43;;;;;;;11.95;10.75;;;24.40;45.00;;;;;;5094498;28;20449;-59
2023/05/21 06:48:08;;;;;;;14.95;11.95;;;24.40;46.30;;;;;;5088622;28;20027;-58
2023/05/21 06:50:34;;;;;;;14.55;12.00;;;23.70;45.90;;;;;;5107775;28;20122;-58
2023/05/21 06:53:00;;;;;;;12.35;10.88;;;23.20;49.30;;;;;;5110974;28;20023;-58
2023/05/21 06:55:25;;;;;;;11.65;10.32;;;23.20;50.60;;;;;;5094544;28;20107;-58
2023/05/21 06:57:51;;;;;;;12.65;10.90;;;23.10;51.60;;;;;;5112046;28;20027;-58
2023/05/21 07:00:17;;;;;;;14.60;11.38;;;22.90;51.50;;;;;;5094607;28;20098;-58
2023/05/21 07:02:42;;;;;;;14.10;11.55;;;22.80;52.40;;;;;;5112255;28;20518;-58
2023/05/21 07:05:08;;;;;;;12.60;10.65;;;22.80;52.90;;;;;;5087767;28;20040;-57
2023/05/21 07:07:34;;;;;;;13.93;12.23;;;22.90;53.00;;;;;;5109889;28;20482;-56
2023/05/21 07:09:59;;;;;;;10.65;9.55;;;23.00;52.70;;;;;;5092751;28;20016;-59
2023/05/21 07:12:25;;;;;;;13.45;11.20;;;23.50;51.80;;;;;;5109288;28;20059;-57
2023/05/21 07:14:51;;;;;;;13.15;10.43;;;23.90;50.40;;;;;;5103268;28;20396;-58
2023/05/21 07:17:16;;;;;;;11.52;9.82;;;24.20;48.60;;;;;;5090544;28;20028;-58
2023/05/21 07:19:42;;;;;;;11.65;10.20;;;24.30;48.60;;;;;;5107856;28;20027;-58
2023/05/21 07:22:07;;;;;;;13.00;11.60;;;24.40;48.20;;;;;;5110692;28;20487;-59
2023/05/21 07:24:33;;;;;;;12.95;11.30;;;24.10;48.00;;;;;;5090120;28;20032;-59
2023/05/21 07:26:58;;;;;;;11.60;10.00;;;24.20;48.50;;;;;;5110420;28;20097;-58
2023/05/21 07:29:24;;;;;;;11.93;9.57;;;24.50;48.10;;;;;;5089268;28;20048;-58
2023/05/21 07:31:49;;;;;;;11.98;10.20;;;24.80;45.90;;;;;;5111192;28;20441;-59
2023/05/21 07:34:15;;;;;;;13.80;10.30;;;24.60;46.00;;;;;;5091597;28;20032;-58
2023/05/21 07:36:40;;;;;;;10.60;9.48;;;24.30;45.50;;;;;;5089251;28;20233;-58
2023/05/21 07:39:06;;;;;;;16.63;10.38;;;24.30;47.40;;;;;;5110274;28;20024;-60
2023/05/21 07:41:31;;;;;;;13.80;10.50;;;24.20;46.90;;;;;;5089503;28;20416;-57
2023/05/21 07:43:57;;;;;;;11.57;10.38;;;23.60;48.70;;;;;;5110926;28;20027;-56
2023/05/21 07:46:22;;;;;;;10.73;9.38;;;23.40;50.20;;;;;;5088310;28;20724;-57
2023/05/21 07:48:48;;;;;;;11.85;9.70;;;23.50;50.20;;;;;;5110289;28;20035;-58
2023/05/21 07:51:14;;;;;;;14.48;9.35;;;23.90;49.30;;;;;;5089246;28;20024;-58
2023/05/21 07:53:40;;;;;;;12.35;10.70;;;24.00;47.80;;;;;;5110211;28;20031;-58
2023/05/21 07:56:06;;;;;;;11.38;10.20;;;23.60;48.90;;;;;;5089506;28;20055;-58
2023/05/21 07:58:33;;;;;;;10.43;9.32;;;23.60;49.60;;;;;;5110263;28;20051;-58
2023/05/21 08:00:59;;;;;;;11.35;10.20;;;23.60;49.70;;;;;;5089137;28;20039;-59
2023/05/21 08:03:26;;;;;;;10.35;9.35;;;23.70;49.90;;;;;;5108786;28;20027;-58
2023/05/21 08:05:52;;;;;;;11.02;9.88;;;24.10;49.00;;;;;;5086239;28;20508;-59
2023/05/21 08:08:18;;;;;;;13.00;10.50;;;24.20;48.70;;;;;;5110056;28;20473;-58
2023/05/21 08:10:44;;;;;;;12.85;9.32;;;24.10;47.40;;;;;;5089060;28;20036;-58
2023/05/21 08:13:14;;;;;;;11.02;9.90;;;24.00;48.40;;;;;;5109973;28;20073;-58
2023/05/21 08:15:40;;;;;;;10.25;8.25;;;24.30;47.60;;;;;;5099727;28;20019;-58
2023/05/21 08:18:05;;;;;;;9.00;8.10;;;24.90;45.20;;;;;;5090872;28;20081;-59
2023/05/21 08:20:32;;;;;;;9.43;8.38;;;25.60;43.70;;;;;;5097903;28;20117;-58
2023/05/21 08:22:59;;;;;;;10.15;9.15;;;26.40;39.50;;;;;;5109850;28;20033;-58
2023/05/21 08:25:25;;;;;;;13.20;9.02;;;26.40;40.20;;;;;;5097074;28;20036;-58
2023/05/21 08:27:50;;;;;;;9.32;7.32;;;26.80;39.50;;;;;;5110354;28;20031;-59
2023/05/21 08:30:16;;;;;;;12.98;9.55;;;27.30;38.30;;;;;;5096122;28;20032;-58
2023/05/21 08:32:41;;;;;;;8.70;7.70;;;27.00;34.00;;;;;;5110112;28;20039;-59
2023/05/21 08:35:07;;;;;;;8.30;7.45;;;26.70;37.20;;;;;;5093374;28;20544;-59
2023/05/21 08:37:33;;;;;;;8.82;7.93;;;27.40;34.90;;;;;;5108888;28;20015;-59
2023/05/21 08:39:59;;;;;;;8.98;7.45;;;26.90;35.60;;;;;;5093473;28;20043;-59
2023/05/21 08:42:44;;;;;;;7.90;7.10;;;27.00;36.30;;;;;;5110091;28;20498;-59
2023/05/21 08:45:12;;;;;;;10.60;8.73;;;26.80;34.10;;;;;;5081146;28;20020;-59
2023/05/21 08:47:41;;;;;;;9.88;8.27;;;26.30;34.70;;;;;;5109953;28;20062;-59
2023/05/21 08:50:09;;;;;;;11.77;7.47;;;26.30;34.90;;;;;;5093732;27;20046;-59
2023/05/21 08:52:35;;;;;;;10.10;7.97;;;26.70;34.80;;;;;;5109890;28;20550;-60
2023/05/21 08:55:04;;;;;;;10.52;7.97;;;26.40;33.30;;;;;;5093777;28;20122;-59
2023/05/21 08:57:30;;;;;;;8.85;7.63;;;26.50;33.90;;;;;;5109889;28;20547;-59
2023/05/21 08:59:57;;;;;;;10.45;7.90;;;26.20;35.70;;;;;;5093030;28;20483;-59
2023/05/21 09:02:23;;;;;;;7.82;6.93;;;26.30;34.40;;;;;;5109748;28;20449;-59
2023/05/21 09:04:55;;;;;;;10.07;6.78;;;26.40;34.50;;;;;;5082191;28;20028;-59
2023/05/21 09:07:29;;;;;;;8.38;7.47;;;26.60;34.80;;;;;;5089217;28;20307;-59
2023/05/21 09:10:10;;;;;;;10.60;7.75;;;27.00;31.90;;;;;;5071917;28;20437;-59
2023/05/21 09:12:36;;;;;;;10.82;8.07;;;26.30;34.40;;;;;;5089345;28;20036;-59
2023/05/21 09:15:03;;;;;;;9.15;7.95;;;26.30;33.20;;;;;;5105782;28;20032;-59
2023/05/21 09:17:28;;;;;;;10.90;7.47;;;26.30;34.10;;;;;;5109575;28;20052;-59
2023/05/21 09:20:14;;;;;;;9.35;7.05;;;26.40;34.30;;;;;;5090903;28;20027;-59
2023/05/21 09:22:44;;;;;;;12.10;8.52;;;26.20;34.30;;;;;;5109552;28;20024;-59
2023/05/21 09:25:11;;;;;;;8.93;8.02;;;25.90;35.00;;;;;;5093675;28;20534;-59
2023/05/21 09:27:37;;;;;;;11.75;8.25;;;25.80;35.90;;;;;;5109787;28;20058;-59
2023/05/21 09:30:04;;;;;;;9.55;7.45;;;25.70;36.50;;;;;;5093551;28;20028;-59
2023/05/21 09:32:29;;;;;;;14.43;6.90;;;25.80;36.90;;;;;;5109261;28;20525;-59
2023/05/21 09:34:55;;;;;;;11.73;7.68;;;26.30;36.10;;;;;;5092248;28;20024;-59
2023/05/21 09:37:21;;;;;;;8.15;7.38;;;26.30;33.90;;;;;;5109499;28;20046;-58
2023/05/21 09:39:47;;;;;;;13.10;8.40;;;26.50;33.70;;;;;;5091053;28;20055;-59
2023/05/21 09:42:13;;;;;;;11.00;7.65;;;26.30;33.10;;;;;;5109377;28;20514;-59
2023/05/21 09:44:42;;;;;;;7.38;6.55;;;26.30;33.20;;;;;;5089819;28;20047;-59
2023/05/21 09:47:08;;;;;;;8.95;7.70;;;26.30;34.10;;;;;;5107973;28;20024;-59
2023/05/21 09:49:36;;;;;;;8.07;7.10;;;26.20;33.60;;;;;;5089490;28;20028;-59
2023/05/21 09:52:02;;;;;;;11.93;7.60;;;26.20;32.20;;;;;;5109264;28;20039;-59
2023/05/21 09:54:32;;;;;;;9.68;7.38;;;25.80;33.60;;;;;;5088316;28;20035;-58
2023/05/21 09:57:01;;;;;;;12.05;8.10;;;25.60;35.20;;;;;;5109347;28;20023;-59
2023/05/21 09:59:35;;;;;;;8.32;7.40;;;25.60;34.90;;;;;;5087607;28;20028;-58
2023/05/21 10:02:01;;;;;;;12.65;8.18;;;25.80;34.50;;;;;;5110085;28;20038;-59
2023/05/21 10:04:29;;;;;;;8.98;8.15;;;25.70;32.70;;;;;;5090040;28;20024;-58
2023/05/21 10:06:56;;;;;;;10.27;7.57;;;25.60;33.80;;;;;;5090135;28;20074;-59
2023/05/21 10:09:23;;;;;;;11.63;7.80;;;25.70;34.30;;;;;;5110542;28;20035;-58
2023/05/21 10:11:53;;;;;;;16.42;7.60;;;26.00;34.80;;;;;;5112979;28;20057;-58
2023/05/21 10:14:24;;;;;;;9.50;8.02;;;26.10;33.70;;;;;;5092664;28;20081;-58
2023/05/21 10:16:53;;;;;;;8.75;7.50;;;26.00;33.60;;;;;;5092578;28;20030;-59
2023/05/21 10:19:20;;;;;;;10.48;7.53;;;25.90;33.80;;;;;;5112667;28;20394;-58
2023/05/21 10:21:47;;;;;;;8.20;7.35;;;26.00;32.90;;;;;;5112869;28;20040;-59
2023/05/21 10:24:13;;;;;;;12.75;7.85;;;26.10;34.10;;;;;;5091546;28;20073;-58
2023/05/21 10:26:40;;;;;;;10.30;8.07;;;25.90;33.70;;;;;;5090923;28;20115;-59
2023/05/21 10:29:06;;;;;;;8.05;6.63;;;26.00;34.20;;;;;;5112182;28;20110;-59
2023/05/21 10:31:33;;;;;;;8.48;7.57;;;26.10;33.10;;;;;;5089307;28;20047;-59
2023/05/21 10:34:01;;;;;;;12.52;7.13;;;26.10;32.40;;;;;;5112111;28;20024;-59
2023/05/21 10:36:30;;;;;;;8.07;6.75;;;26.20;32.00;;;;;;5090804;28;20050;-58
2023/05/21 10:38:57;;;;;;;7.05;6.13;;;26.10;29.90;;;;;;5112392;28;20024;-59
2023/05/21 10:41:24;;;;;;;8.45;6.40;;;26.30;30.60;;;;;;5089386;28;20539;-58
2023/05/21 10:44:03;;;;;;;8.95;5.85;;;26.20;28.90;;;;;;5111891;28;20068;-58
2023/05/21 10:46:40;;;;;;;8.05;5.90;;;26.30;27.70;;;;;;5087911;28;20016;-59
2023/05/21 10:49:34;;;;;;;6.38;5.65;;;26.10;27.10;;;;;;5071811;28;20050;-59
2023/05/21 10:52:33;;;;;;;5.88;5.22;;;26.30;27.00;;;;;;5070577;28;20036;-59
2023/05/21 10:55:28;;;;;;;6.80;5.65;;;26.50;26.20;;;;;;5080348;28;20024;-59
2023/05/21 10:58:15;;;;;;;9.85;5.93;;;26.70;25.90;;;;;;5112258;28;20023;-58
2023/05/21 11:00:42;;;;;;;8.52;5.47;;;26.40;25.50;;;;;;5091913;28;20035;-59
2023/05/21 11:03:11;;;;;;;8.77;5.55;;;26.50;25.40;;;;;;5092036;28;20023;-59
2023/05/21 11:05:50;;;;;;;21.77;5.97;;;26.50;24.40;;;;;;5093128;28;20034;-59
2023/05/21 11:08:34;;;;;;;9.25;5.53;;;26.60;23.60;;;;;;5071585;28;20259;-58
2023/05/21 11:11:01;;;;;;;6.28;5.28;;;26.60;24.20;;;;;;5083660;28;20028;-58
2023/05/21 11:13:30;;;;;;;10.70;5.47;;;26.80;24.70;;;;;;5110664;28;20027;-59
2023/05/21 11:15:58;;;;;;;7.05;5.75;;;26.70;22.50;;;;;;5089789;28;20034;-59
2023/05/21 11:18:32;;;;;;;8.32;4.97;;;26.50;23.10;;;;;;5111040;28;20034;-59
2023/05/21 11:21:05;;;;;;;6.82;5.15;;;26.40;23.30;;;;;;5089771;28;20115;-59
2023/05/21 11:23:49;;;;;;;7.32;5.10;;;26.40;22.20;;;;;;5111220;28;20019;-58
2023/05/21 11:26:18;;;;;;;8.05;5.72;;;26.50;22.20;;;;;;5099916;28;20511;-58
2023/05/21 11:28:44;;;;;;;9.32;5.22;;;26.40;22.80;;;;;;5091338;28;20039;-60
2023/05/21 11:31:21;;;;;;;7.10;5.55;;;26.60;22.70;;;;;;5093797;28;20403;-58
2023/05/21 11:33:47;;;;;;;13.15;5.57;;;26.60;22.80;;;;;;5109342;28;20479;-58
2023/05/21 11:36:13;;;;;;;6.95;5.63;;;26.80;21.40;;;;;;5088596;28;20054;-58
2023/05/21 11:38:38;;;;;;;5.30;4.80;;;26.60;20.70;;;;;;5111140;28;20078;-58
2023/05/21 11:41:04;;;;;;;6.80;4.97;;;26.40;21.50;;;;;;5089677;28;20031;-59
2023/05/21 11:43:29;;;;;;;6.78;5.47;;;26.50;22.20;;;;;;5110420;28;20020;-59
2023/05/21 11:45:55;;;;;;;5.97;5.10;;;26.60;22.10;;;;;;5089628;28;20016;-58
2023/05/21 11:48:24;;;;;;;7.53;5.32;;;26.80;21.90;;;;;;5110514;28;20020;-57
2023/05/21 11:50:50;;;;;;;8.90;5.65;;;26.80;22.00;;;;;;5089352;28;20050;-58
2023/05/21 11:53:15;;;;;;;6.95;5.22;;;26.90;22.60;;;;;;5110249;28;20067;-58
2023/05/21 11:55:42;;;;;;;7.85;4.80;;;26.80;22.40;;;;;;5100412;28;20069;-58
2023/05/21 11:58:12;;;;;;;7.47;5.65;;;26.80;22.40;;;;;;5090942;28;20028;-58
2023/05/21 12:00:39;;;;;;;8.25;6.13;;;26.80;22.60;;;;;;5088470;28;20073;-58
2023/05/21 12:03:06;;;;;;;7.25;5.95;;;26.70;22.60;;;;;;5110360;28;20509;-58
2023/05/21 12:05:43;;;;;;;8.35;5.43;;;26.50;21.80;;;;;;5083191;28;20020;-57
2023/05/21 12:08:09;;;;;;;10.32;5.43;;;26.30;21.50;;;;;;5082738;28;20027;-58
2023/05/21 12:10:38;;;;;;;10.60;5.47;;;26.30;22.40;;;;;;5097432;28;20031;-57
2023/05/21 12:13:04;;;;;;;6.65;5.68;;;26.40;22.60;;;;;;5090478;28;20447;-58
2023/05/21 12:15:29;;;;;;;6.78;5.15;;;26.40;22.10;;;;;;5107924;28;20019;-58
2023/05/21 12:17:55;;;;;;;10.18;5.13;;;26.40;22.20;;;;;;5076385;28;20035;-58
2023/05/21 12:20:21;;;;;;;11.35;5.72;;;26.50;21.70;;;;;;5098267;28;20419;-58
2023/05/21 12:22:49;;;;;;;8.55;5.88;;;26.50;21.30;;;;;;5074257;28;20040;-58
2023/05/21 12:25:19;;;;;;;7.78;5.55;;;26.50;22.00;;;;;;5096339;28;20035;-58
2023/05/21 12:27:45;;;;;;;7.00;5.07;;;26.50;21.70;;;;;;5072872;28;20032;-58
2023/05/21 12:30:12;;;;;;;9.18;5.85;;;26.60;21.60;;;;;;5094475;28;20134;-47
2023/05/21 12:32:43;;;;;;;7.47;5.60;;;26.70;20.40;;;;;;5078014;28;20036;-46
2023/05/21 12:35:18;;;;;;;10.50;5.80;;;26.80;20.80;;;;;;5072900;28;20033;-59